sensor_id;sensor_type;location;lat;lon;timestamp;P1;durP1;ratioP1;P2;durP2;ratioP2
64854;SDS011;51321;50.428;8.378;2023-06-14T00:01:19;3.33;;;3.00;;
64854;SDS011;51321;50.428;8.378;2023-06-14T00:04:00;6.72;;;3.28;;
64854;SDS011;51321;50.428;8.378;2023-06-14T00:06:41;3.90;;;3.50;;
64854;SDS011;51321;50.428;8.378;2023-06-14T00:09:25;5.45;;;3.20;;
64854;SDS011;51321;50.428;8.378;2023-06-14T00:12:06;3.85;;;3.10;;
64854;SDS011;51321;50.428;8.378;2023-06-14T00:14:47;3.50;;;3.13;;
64854;SDS011;51321;50.428;8.378;2023-06-14T00:17:28;5.00;;;3.33;;
64854;SDS011;51321;50.428;8.378;2023-06-14T00:20:10;4.30;;;3.35;;
64854;SDS011;51321;50.428;8.378;2023-06-14T00:22:51;4.85;;;3.50;;
64854;SDS011;51321;50.428;8.378;2023-06-14T00:25:34;7.25;;;3.65;;
64854;SDS011;51321;50.428;8.378;2023-06-14T00:28:17;4.60;;;3.30;;
64854;SDS011;51321;50.428;8.378;2023-06-14T00:30:57;3.65;;;2.97;;
64854;SDS011;51321;50.428;8.378;2023-06-14T00:33:41;5.00;;;3.00;;
64854;SDS011;51321;50.428;8.378;2023-06-14T00:36:21;3.85;;;3.45;;
64854;SDS011;51321;50.428;8.378;2023-06-14T00:39:02;7.05;;;3.95;;
64854;SDS011;51321;50.428;8.378;2023-06-14T00:41:45;8.38;;;3.70;;
64854;SDS011;51321;50.428;8.378;2023-06-14T00:44:25;8.10;;;3.50;;
64854;SDS011;51321;50.428;8.378;2023-06-14T00:47:06;4.82;;;3.60;;
64854;SDS011;51321;50.428;8.378;2023-06-14T00:49:47;4.18;;;3.13;;
64854;SDS011;51321;50.428;8.378;2023-06-14T00:52:30;6.60;;;4.18;;
64854;SDS011;51321;50.428;8.378;2023-06-14T00:55:11;6.63;;;3.50;;
64854;SDS011;51321;50.428;8.378;2023-06-14T00:57:53;5.38;;;4.07;;
64854;SDS011;51321;50.428;8.378;2023-06-14T01:03:15;10.13;;;3.63;;
64854;SDS011;51321;50.428;8.378;2023-06-14T01:06:03;5.15;;;3.33;;
64854;SDS011;51321;50.428;8.378;2023-06-14T01:09:07;4.43;;;3.40;;
64854;SDS011;51321;50.428;8.378;2023-06-14T01:11:57;4.07;;;3.28;;
64854;SDS011;51321;50.428;8.378;2023-06-14T01:14:43;4.43;;;3.03;;
64854;SDS011;51321;50.428;8.378;2023-06-14T01:17:25;7.32;;;3.40;;
64854;SDS011;51321;50.428;8.378;2023-06-14T01:20:11;4.65;;;3.30;;
64854;SDS011;51321;50.428;8.378;2023-06-14T01:22:55;3.58;;;3.22;;
64854;SDS011;51321;50.428;8.378;2023-06-14T01:25:36;5.50;;;3.58;;
64854;SDS011;51321;50.428;8.378;2023-06-14T01:28:21;5.40;;;3.60;;
64854;SDS011;51321;50.428;8.378;2023-06-14T01:31:02;4.35;;;3.53;;
64854;SDS011;51321;50.428;8.378;2023-06-14T01:33:45;4.25;;;3.28;;
64854;SDS011;51321;50.428;8.378;2023-06-14T01:36:29;4.20;;;3.65;;
64854;SDS011;51321;50.428;8.378;2023-06-14T01:39:11;4.03;;;3.38;;
64854;SDS011;51321;50.428;8.378;2023-06-14T01:41:54;4.35;;;3.58;;
64854;SDS011;51321;50.428;8.378;2023-06-14T01:44:36;4.43;;;3.63;;
64854;SDS011;51321;50.428;8.378;2023-06-14T01:47:17;7.63;;;3.60;;
64854;SDS011;51321;50.428;8.378;2023-06-14T01:50:01;4.47;;;3.50;;
64854;SDS011;51321;50.428;8.378;2023-06-14T01:52:44;5.00;;;3.72;;
64854;SDS011;51321;50.428;8.378;2023-06-14T01:55:26;3.90;;;3.28;;
64854;SDS011;51321;50.428;8.378;2023-06-14T01:58:06;4.00;;;3.50;;
64854;SDS011;51321;50.428;8.378;2023-06-14T02:00:47;6.70;;;3.85;;
64854;SDS011;51321;50.428;8.378;2023-06-14T02:03:28;4.10;;;3.70;;
64854;SDS011;51321;50.428;8.378;2023-06-14T02:06:09;5.95;;;3.85;;
64854;SDS011;51321;50.428;8.378;2023-06-14T02:11:33;4.22;;;3.58;;
64854;SDS011;51321;50.428;8.378;2023-06-14T02:14:14;6.45;;;4.20;;
64854;SDS011;51321;50.428;8.378;2023-06-14T02:16:55;6.72;;;3.53;;
64854;SDS011;51321;50.428;8.378;2023-06-14T02:19:37;5.43;;;3.63;;
64854;SDS011;51321;50.428;8.378;2023-06-14T02:22:17;5.85;;;3.97;;
64854;SDS011;51321;50.428;8.378;2023-06-14T02:27:42;4.10;;;3.70;;
64854;SDS011;51321;50.428;8.378;2023-06-14T02:30:23;4.28;;;3.55;;
64854;SDS011;51321;50.428;8.378;2023-06-14T02:33:03;6.82;;;4.22;;
64854;SDS011;51321;50.428;8.378;2023-06-14T02:35:45;4.57;;;4.13;;
64854;SDS011;51321;50.428;8.378;2023-06-14T02:38:26;4.90;;;3.60;;
64854;SDS011;51321;50.428;8.378;2023-06-14T02:41:07;4.07;;;3.55;;
64854;SDS011;51321;50.428;8.378;2023-06-14T02:43:48;4.60;;;4.03;;
64854;SDS011;51321;50.428;8.378;2023-06-14T02:46:29;6.95;;;4.30;;
64854;SDS011;51321;50.428;8.378;2023-06-14T02:49:10;4.82;;;3.58;;
64854;SDS011;51321;50.428;8.378;2023-06-14T02:51:52;3.88;;;3.10;;
64854;SDS011;51321;50.428;8.378;2023-06-14T02:54:33;4.93;;;3.78;;
64854;SDS011;51321;50.428;8.378;2023-06-14T02:57:15;5.10;;;3.33;;
64854;SDS011;51321;50.428;8.378;2023-06-14T02:59:57;5.07;;;3.55;;
64854;SDS011;51321;50.428;8.378;2023-06-14T03:02:38;7.80;;;3.78;;
64854;SDS011;51321;50.428;8.378;2023-06-14T03:05:19;4.68;;;3.80;;
64854;SDS011;51321;50.428;8.378;2023-06-14T03:08:01;9.18;;;3.63;;
64854;SDS011;51321;50.428;8.378;2023-06-14T03:10:42;6.85;;;3.35;;
64854;SDS011;51321;50.428;8.378;2023-06-14T03:13:23;5.18;;;3.55;;
64854;SDS011;51321;50.428;8.378;2023-06-14T03:16:07;4.32;;;3.63;;
64854;SDS011;51321;50.428;8.378;2023-06-14T03:18:51;8.43;;;4.05;;
64854;SDS011;51321;50.428;8.378;2023-06-14T03:21:32;4.90;;;3.92;;
64854;SDS011;51321;50.428;8.378;2023-06-14T03:24:15;6.15;;;3.92;;
64854;SDS011;51321;50.428;8.378;2023-06-14T03:26:56;5.78;;;3.88;;
64854;SDS011;51321;50.428;8.378;2023-06-14T03:32:22;6.40;;;3.63;;
64854;SDS011;51321;50.428;8.378;2023-06-14T03:35:02;6.23;;;3.60;;
64854;SDS011;51321;50.428;8.378;2023-06-14T03:37:44;6.95;;;4.30;;
64854;SDS011;51321;50.428;8.378;2023-06-14T03:40:25;4.30;;;3.60;;
64854;SDS011;51321;50.428;8.378;2023-06-14T03:43:12;5.43;;;3.92;;
64854;SDS011;51321;50.428;8.378;2023-06-14T03:45:53;8.30;;;4.40;;
64854;SDS011;51321;50.428;8.378;2023-06-14T03:48:37;5.63;;;3.47;;
64854;SDS011;51321;50.428;8.378;2023-06-14T03:51:20;6.78;;;4.30;;
64854;SDS011;51321;50.428;8.378;2023-06-14T03:54:01;5.43;;;4.03;;
64854;SDS011;51321;50.428;8.378;2023-06-14T03:56:42;6.72;;;3.72;;
64854;SDS011;51321;50.428;8.378;2023-06-14T03:59:25;5.10;;;3.53;;
64854;SDS011;51321;50.428;8.378;2023-06-14T04:02:06;5.38;;;3.53;;
64854;SDS011;51321;50.428;8.378;2023-06-14T04:04:49;5.68;;;3.92;;
64854;SDS011;51321;50.428;8.378;2023-06-14T04:07:30;8.52;;;3.50;;
64854;SDS011;51321;50.428;8.378;2023-06-14T04:10:11;3.92;;;3.22;;
64854;SDS011;51321;50.428;8.378;2023-06-14T04:12:53;4.38;;;3.60;;
64854;SDS011;51321;50.428;8.378;2023-06-14T04:15:34;6.05;;;3.72;;
64854;SDS011;51321;50.428;8.378;2023-06-14T04:18:17;5.85;;;3.53;;
64854;SDS011;51321;50.428;8.378;2023-06-14T04:20:59;6.63;;;3.97;;
64854;SDS011;51321;50.428;8.378;2023-06-14T04:23:41;3.75;;;3.22;;
64854;SDS011;51321;50.428;8.378;2023-06-14T04:26:23;5.07;;;3.47;;
64854;SDS011;51321;50.428;8.378;2023-06-14T04:29:09;4.13;;;3.05;;
64854;SDS011;51321;50.428;8.378;2023-06-14T04:31:55;4.20;;;3.75;;
64854;SDS011;51321;50.428;8.378;2023-06-14T04:34:38;6.30;;;3.58;;
64854;SDS011;51321;50.428;8.378;2023-06-14T04:37:22;4.57;;;3.70;;
64854;SDS011;51321;50.428;8.378;2023-06-14T04:40:03;4.18;;;3.47;;
64854;SDS011;51321;50.428;8.378;2023-06-14T04:42:46;5.05;;;3.22;;
64854;SDS011;51321;50.428;8.378;2023-06-14T04:48:11;4.88;;;3.50;;
64854;SDS011;51321;50.428;8.378;2023-06-14T04:50:51;4.68;;;3.67;;
64854;SDS011;51321;50.428;8.378;2023-06-14T04:53:34;4.57;;;3.97;;
64854;SDS011;51321;50.428;8.378;2023-06-14T04:56:16;5.35;;;3.80;;
64854;SDS011;51321;50.428;8.378;2023-06-14T04:58:56;4.65;;;3.45;;
64854;SDS011;51321;50.428;8.378;2023-06-14T05:01:37;5.50;;;3.38;;
64854;SDS011;51321;50.428;8.378;2023-06-14T05:04:18;4.47;;;3.50;;
64854;SDS011;51321;50.428;8.378;2023-06-14T05:07:00;4.90;;;3.25;;
64854;SDS011;51321;50.428;8.378;2023-06-14T05:09:43;7.72;;;3.58;;
64854;SDS011;51321;50.428;8.378;2023-06-14T05:12:25;7.55;;;3.30;;
64854;SDS011;51321;50.428;8.378;2023-06-14T05:15:06;4.68;;;3.25;;
64854;SDS011;51321;50.428;8.378;2023-06-14T05:17:48;6.85;;;3.00;;
64854;SDS011;51321;50.428;8.378;2023-06-14T05:20:33;6.80;;;2.75;;
64854;SDS011;51321;50.428;8.378;2023-06-14T05:23:15;4.28;;;3.03;;
64854;SDS011;51321;50.428;8.378;2023-06-14T05:25:58;5.40;;;2.38;;
64854;SDS011;51321;50.428;8.378;2023-06-14T05:28:41;4.95;;;2.50;;
64854;SDS011;51321;50.428;8.378;2023-06-14T05:31:22;3.42;;;2.67;;
64854;SDS011;51321;50.428;8.378;2023-06-14T05:34:05;8.27;;;2.78;;
64854;SDS011;51321;50.428;8.378;2023-06-14T05:36:45;8.48;;;2.90;;
64854;SDS011;51321;50.428;8.378;2023-06-14T05:39:26;10.25;;;2.80;;
64854;SDS011;51321;50.428;8.378;2023-06-14T05:42:08;4.82;;;3.00;;
64854;SDS011;51321;50.428;8.378;2023-06-14T05:44:48;4.88;;;2.85;;
64854;SDS011;51321;50.428;8.378;2023-06-14T05:47:29;3.80;;;2.17;;
64854;SDS011;51321;50.428;8.378;2023-06-14T05:50:10;2.90;;;2.40;;
64854;SDS011;51321;50.428;8.378;2023-06-14T05:52:50;4.78;;;2.45;;
64854;SDS011;51321;50.428;8.378;2023-06-14T05:55:31;6.00;;;3.08;;
64854;SDS011;51321;50.428;8.378;2023-06-14T05:58:13;4.30;;;2.30;;
64854;SDS011;51321;50.428;8.378;2023-06-14T06:00:53;7.03;;;2.80;;
64854;SDS011;51321;50.428;8.378;2023-06-14T06:03:34;3.28;;;2.38;;
64854;SDS011;51321;50.428;8.378;2023-06-14T06:06:18;3.00;;;2.10;;
64854;SDS011;51321;50.428;8.378;2023-06-14T06:08:58;2.90;;;2.10;;
64854;SDS011;51321;50.428;8.378;2023-06-14T06:11:39;3.95;;;2.83;;
64854;SDS011;51321;50.428;8.378;2023-06-14T06:14:21;3.63;;;2.78;;
64854;SDS011;51321;50.428;8.378;2023-06-14T06:17:02;5.35;;;2.30;;
64854;SDS011;51321;50.428;8.378;2023-06-14T06:19:43;6.63;;;2.20;;
64854;SDS011;51321;50.428;8.378;2023-06-14T06:22:24;5.10;;;2.50;;
64854;SDS011;51321;50.428;8.378;2023-06-14T06:25:06;3.83;;;2.10;;
64854;SDS011;51321;50.428;8.378;2023-06-14T06:27:47;6.13;;;2.37;;
64854;SDS011;51321;50.428;8.378;2023-06-14T06:30:30;6.15;;;2.10;;
64854;SDS011;51321;50.428;8.378;2023-06-14T06:33:10;5.90;;;2.30;;
64854;SDS011;51321;50.428;8.378;2023-06-14T06:35:52;5.90;;;2.20;;
64854;SDS011;51321;50.428;8.378;2023-06-14T06:38:32;7.43;;;1.88;;
64854;SDS011;51321;50.428;8.378;2023-06-14T06:41:13;5.63;;;2.15;;
64854;SDS011;51321;50.428;8.378;2023-06-14T06:43:54;3.97;;;2.13;;
64854;SDS011;51321;50.428;8.378;2023-06-14T06:46:43;6.78;;;2.20;;
64854;SDS011;51321;50.428;8.378;2023-06-14T06:49:24;4.47;;;2.00;;
64854;SDS011;51321;50.428;8.378;2023-06-14T06:52:05;3.67;;;2.10;;
64854;SDS011;51321;50.428;8.378;2023-06-14T06:54:46;3.55;;;2.30;;
64854;SDS011;51321;50.428;8.378;2023-06-14T06:57:28;6.00;;;2.17;;
64854;SDS011;51321;50.428;8.378;2023-06-14T07:00:11;3.47;;;1.95;;
64854;SDS011;51321;50.428;8.378;2023-06-14T07:02:54;3.88;;;1.60;;
64854;SDS011;51321;50.428;8.378;2023-06-14T07:05:35;11.10;;;1.80;;
64854;SDS011;51321;50.428;8.378;2023-06-14T07:08:16;2.08;;;1.60;;
64854;SDS011;51321;50.428;8.378;2023-06-14T07:10:57;2.53;;;1.60;;
64854;SDS011;51321;50.428;8.378;2023-06-14T07:13:38;11.88;;;2.10;;
64854;SDS011;51321;50.428;8.378;2023-06-14T07:16:19;2.00;;;1.80;;
64854;SDS011;51321;50.428;8.378;2023-06-14T07:19:01;2.45;;;1.75;;
64854;SDS011;51321;50.428;8.378;2023-06-14T07:21:42;2.13;;;1.58;;
64854;SDS011;51321;50.428;8.378;2023-06-14T07:24:22;4.40;;;1.85;;
64854;SDS011;51321;50.428;8.378;2023-06-14T07:27:03;2.42;;;1.50;;
64854;SDS011;51321;50.428;8.378;2023-06-14T07:29:44;7.45;;;2.10;;
64854;SDS011;51321;50.428;8.378;2023-06-14T07:32:25;4.05;;;1.50;;
64854;SDS011;51321;50.428;8.378;2023-06-14T07:35:07;6.05;;;1.67;;
64854;SDS011;51321;50.428;8.378;2023-06-14T07:40:29;3.25;;;1.63;;
64854;SDS011;51321;50.428;8.378;2023-06-14T07:43:09;5.13;;;1.95;;
64854;SDS011;51321;50.428;8.378;2023-06-14T07:45:50;3.92;;;1.48;;
64854;SDS011;51321;50.428;8.378;2023-06-14T07:48:30;4.18;;;1.55;;
64854;SDS011;51321;50.428;8.378;2023-06-14T07:51:13;2.58;;;1.85;;
64854;SDS011;51321;50.428;8.378;2023-06-14T07:53:54;2.25;;;1.50;;
64854;SDS011;51321;50.428;8.378;2023-06-14T07:56:35;6.18;;;1.70;;
64854;SDS011;51321;50.428;8.378;2023-06-14T07:59:16;5.60;;;1.33;;
64854;SDS011;51321;50.428;8.378;2023-06-14T08:01:57;5.93;;;1.60;;
64854;SDS011;51321;50.428;8.378;2023-06-14T08:04:38;4.85;;;1.30;;
64854;SDS011;51321;50.428;8.378;2023-06-14T08:07:20;2.05;;;1.33;;
64854;SDS011;51321;50.428;8.378;2023-06-14T08:10:01;3.90;;;1.23;;
64854;SDS011;51321;50.428;8.378;2023-06-14T08:12:42;1.45;;;1.00;;
64854;SDS011;51321;50.428;8.378;2023-06-14T08:15:23;1.92;;;1.27;;
64854;SDS011;51321;50.428;8.378;2023-06-14T08:18:04;2.67;;;1.73;;
64854;SDS011;51321;50.428;8.378;2023-06-14T08:20:45;1.75;;;1.23;;
64854;SDS011;51321;50.428;8.378;2023-06-14T08:23:27;1.65;;;1.10;;
64854;SDS011;51321;50.428;8.378;2023-06-14T08:26:07;2.95;;;1.38;;
64854;SDS011;51321;50.428;8.378;2023-06-14T08:28:49;4.57;;;1.25;;
64854;SDS011;51321;50.428;8.378;2023-06-14T08:31:30;1.67;;;1.13;;
64854;SDS011;51321;50.428;8.378;2023-06-14T08:34:10;3.70;;;1.02;;
64854;SDS011;51321;50.428;8.378;2023-06-14T08:36:51;1.20;;;0.93;;
64854;SDS011;51321;50.428;8.378;2023-06-14T08:39:33;1.95;;;0.98;;
64854;SDS011;51321;50.428;8.378;2023-06-14T08:42:14;1.58;;;1.05;;
64854;SDS011;51321;50.428;8.378;2023-06-14T08:44:55;1.67;;;0.80;;
64854;SDS011;51321;50.428;8.378;2023-06-14T08:47:36;3.00;;;0.93;;
64854;SDS011;51321;50.428;8.378;2023-06-14T08:50:16;4.30;;;1.30;;
64854;SDS011;51321;50.428;8.378;2023-06-14T08:53:00;8.23;;;1.00;;
64854;SDS011;51321;50.428;8.378;2023-06-14T08:55:43;2.10;;;1.42;;
64854;SDS011;51321;50.428;8.378;2023-06-14T08:58:24;2.72;;;1.60;;
64854;SDS011;51321;50.428;8.378;2023-06-14T09:01:08;2.08;;;1.20;;
64854;SDS011;51321;50.428;8.378;2023-06-14T09:06:34;3.78;;;1.25;;
64854;SDS011;51321;50.428;8.378;2023-06-14T09:09:16;2.83;;;1.20;;
64854;SDS011;51321;50.428;8.378;2023-06-14T09:11:58;3.60;;;1.33;;
64854;SDS011;51321;50.428;8.378;2023-06-14T09:14:38;7.60;;;1.60;;
64854;SDS011;51321;50.428;8.378;2023-06-14T09:17:21;3.90;;;1.30;;
64854;SDS011;51321;50.428;8.378;2023-06-14T09:20:04;3.97;;;1.40;;
64854;SDS011;51321;50.428;8.378;2023-06-14T09:22:48;2.67;;;1.30;;
64854;SDS011;51321;50.428;8.378;2023-06-14T09:25:29;3.65;;;1.27;;
64854;SDS011;51321;50.428;8.378;2023-06-14T09:28:11;3.72;;;1.60;;
64854;SDS011;51321;50.428;8.378;2023-06-14T09:30:52;2.80;;;1.33;;
64854;SDS011;51321;50.428;8.378;2023-06-14T09:33:33;2.22;;;0.90;;
64854;SDS011;51321;50.428;8.378;2023-06-14T09:36:14;1.95;;;1.20;;
64854;SDS011;51321;50.428;8.378;2023-06-14T09:38:57;2.60;;;1.10;;
64854;SDS011;51321;50.428;8.378;2023-06-14T09:41:40;1.77;;;1.10;;
64854;SDS011;51321;50.428;8.378;2023-06-14T09:44:23;6.07;;;1.58;;
64854;SDS011;51321;50.428;8.378;2023-06-14T09:47:07;3.08;;;1.30;;
64854;SDS011;51321;50.428;8.378;2023-06-14T09:49:48;3.22;;;1.10;;
64854;SDS011;51321;50.428;8.378;2023-06-14T09:52:30;1.63;;;1.27;;
64854;SDS011;51321;50.428;8.378;2023-06-14T09:55:12;2.78;;;1.20;;
64854;SDS011;51321;50.428;8.378;2023-06-14T09:57:53;3.77;;;1.20;;
64854;SDS011;51321;50.428;8.378;2023-06-14T10:00:37;2.40;;;1.30;;
64854;SDS011;51321;50.428;8.378;2023-06-14T10:03:21;2.35;;;1.20;;
64854;SDS011;51321;50.428;8.378;2023-06-14T10:06:05;2.67;;;1.27;;
64854;SDS011;51321;50.428;8.378;2023-06-14T10:08:48;1.38;;;1.13;;
64854;SDS011;51321;50.428;8.378;2023-06-14T10:11:31;3.03;;;1.50;;
64854;SDS011;51321;50.428;8.378;2023-06-14T10:14:12;3.65;;;1.70;;
64854;SDS011;51321;50.428;8.378;2023-06-14T10:16:56;3.17;;;1.40;;
64854;SDS011;51321;50.428;8.378;2023-06-14T10:19:42;3.22;;;1.38;;
64854;SDS011;51321;50.428;8.378;2023-06-14T10:22:32;4.13;;;1.73;;
64854;SDS011;51321;50.428;8.378;2023-06-14T10:25:27;3.13;;;1.30;;
64854;SDS011;51321;50.428;8.378;2023-06-14T10:28:16;1.83;;;1.33;;
64854;SDS011;51321;50.428;8.378;2023-06-14T10:31:01;1.98;;;1.50;;
64854;SDS011;51321;50.428;8.378;2023-06-14T10:33:49;2.25;;;1.73;;
64854;SDS011;51321;50.428;8.378;2023-06-14T10:36:35;6.78;;;2.40;;
64854;SDS011;51321;50.428;8.378;2023-06-14T10:39:17;3.63;;;1.50;;
64854;SDS011;51321;50.428;8.378;2023-06-14T10:41:58;4.45;;;1.85;;
64854;SDS011;51321;50.428;8.378;2023-06-14T10:44:44;3.05;;;1.48;;
64854;SDS011;51321;50.428;8.378;2023-06-14T10:47:27;2.47;;;1.70;;
64854;SDS011;51321;50.428;8.378;2023-06-14T10:50:10;2.60;;;1.35;;
64854;SDS011;51321;50.428;8.378;2023-06-14T10:52:56;14.93;;;1.40;;
64854;SDS011;51321;50.428;8.378;2023-06-14T10:55:37;2.50;;;1.55;;
64854;SDS011;51321;50.428;8.378;2023-06-14T10:58:18;6.70;;;1.55;;
64854;SDS011;51321;50.428;8.378;2023-06-14T11:00:59;4.10;;;1.83;;
64854;SDS011;51321;50.428;8.378;2023-06-14T11:03:46;1.58;;;1.23;;
64854;SDS011;51321;50.428;8.378;2023-06-14T11:06:34;3.63;;;1.02;;
64854;SDS011;51321;50.428;8.378;2023-06-14T11:12:45;3.28;;;1.15;;
64854;SDS011;51321;50.428;8.378;2023-06-14T11:18:09;2.70;;;1.35;;
64854;SDS011;51321;50.428;8.378;2023-06-14T11:20:49;5.05;;;1.33;;
64854;SDS011;51321;50.428;8.378;2023-06-14T11:23:32;1.80;;;1.30;;
64854;SDS011;51321;50.428;8.378;2023-06-14T11:26:13;3.45;;;1.42;;
64854;SDS011;51321;50.428;8.378;2023-06-14T11:28:57;7.78;;;1.92;;
64854;SDS011;51321;50.428;8.378;2023-06-14T11:31:43;3.63;;;1.15;;
64854;SDS011;51321;50.428;8.378;2023-06-14T11:37:04;2.53;;;1.30;;
64854;SDS011;51321;50.428;8.378;2023-06-14T11:39:46;2.10;;;1.33;;
64854;SDS011;51321;50.428;8.378;2023-06-14T11:42:27;3.25;;;1.25;;
64854;SDS011;51321;50.428;8.378;2023-06-14T11:45:09;2.85;;;1.42;;
64854;SDS011;51321;50.428;8.378;2023-06-14T11:47:50;1.40;;;1.30;;
64854;SDS011;51321;50.428;8.378;2023-06-14T11:50:31;1.70;;;1.40;;
64854;SDS011;51321;50.428;8.378;2023-06-14T11:53:12;1.48;;;0.90;;
64854;SDS011;51321;50.428;8.378;2023-06-14T11:55:57;2.85;;;1.30;;
64854;SDS011;51321;50.428;8.378;2023-06-14T11:58:38;2.88;;;1.25;;
64854;SDS011;51321;50.428;8.378;2023-06-14T12:01:19;1.65;;;1.15;;
64854;SDS011;51321;50.428;8.378;2023-06-14T12:04:04;1.65;;;1.20;;
64854;SDS011;51321;50.428;8.378;2023-06-14T12:06:45;1.50;;;1.23;;
64854;SDS011;51321;50.428;8.378;2023-06-14T12:09:28;3.67;;;1.38;;
64854;SDS011;51321;50.428;8.378;2023-06-14T12:12:11;1.70;;;1.20;;
64854;SDS011;51321;50.428;8.378;2023-06-14T12:14:53;4.50;;;1.27;;
64854;SDS011;51321;50.428;8.378;2023-06-14T12:17:36;2.13;;;1.00;;
64854;SDS011;51321;50.428;8.378;2023-06-14T12:20:20;5.40;;;1.50;;
64854;SDS011;51321;50.428;8.378;2023-06-14T12:23:02;3.33;;;1.05;;
64854;SDS011;51321;50.428;8.378;2023-06-14T12:25:43;3.58;;;1.48;;
64854;SDS011;51321;50.428;8.378;2023-06-14T12:28:30;4.93;;;1.60;;
64854;SDS011;51321;50.428;8.378;2023-06-14T12:31:12;2.35;;;1.15;;
64854;SDS011;51321;50.428;8.378;2023-06-14T12:33:54;1.75;;;1.20;;
64854;SDS011;51321;50.428;8.378;2023-06-14T12:36:34;3.83;;;1.10;;
64854;SDS011;51321;50.428;8.378;2023-06-14T12:39:20;3.90;;;1.27;;
64854;SDS011;51321;50.428;8.378;2023-06-14T12:42:01;2.58;;;1.42;;
64854;SDS011;51321;50.428;8.378;2023-06-14T12:44:44;2.05;;;1.50;;
64854;SDS011;51321;50.428;8.378;2023-06-14T12:47:25;3.83;;;1.30;;
64854;SDS011;51321;50.428;8.378;2023-06-14T12:50:06;2.42;;;1.60;;
64854;SDS011;51321;50.428;8.378;2023-06-14T12:52:47;3.53;;;1.40;;
64854;SDS011;51321;50.428;8.378;2023-06-14T12:55:27;1.27;;;0.93;;
64854;SDS011;51321;50.428;8.378;2023-06-14T12:58:08;2.10;;;1.40;;
64854;SDS011;51321;50.428;8.378;2023-06-14T13:00:53;1.63;;;1.05;;
64854;SDS011;51321;50.428;8.378;2023-06-14T13:03:33;6.22;;;1.48;;
64854;SDS011;51321;50.428;8.378;2023-06-14T13:06:14;5.40;;;1.30;;
64854;SDS011;51321;50.428;8.378;2023-06-14T13:08:54;4.10;;;1.63;;
64854;SDS011;51321;50.428;8.378;2023-06-14T13:11:36;2.47;;;1.25;;
64854;SDS011;51321;50.428;8.378;2023-06-14T13:14:17;5.78;;;1.38;;
64854;SDS011;51321;50.428;8.378;2023-06-14T13:17:00;5.15;;;1.50;;
64854;SDS011;51321;50.428;8.378;2023-06-14T13:19:40;1.80;;;1.27;;
64854;SDS011;51321;50.428;8.378;2023-06-14T13:22:22;3.15;;;1.30;;
64854;SDS011;51321;50.428;8.378;2023-06-14T13:25:03;2.53;;;1.38;;
64854;SDS011;51321;50.428;8.378;2023-06-14T13:27:44;2.80;;;1.10;;
64854;SDS011;51321;50.428;8.378;2023-06-14T13:30:25;2.08;;;1.25;;
64854;SDS011;51321;50.428;8.378;2023-06-14T13:33:07;4.22;;;1.88;;
64854;SDS011;51321;50.428;8.378;2023-06-14T13:35:47;4.22;;;1.23;;
64854;SDS011;51321;50.428;8.378;2023-06-14T13:38:28;2.35;;;1.13;;
64854;SDS011;51321;50.428;8.378;2023-06-14T13:41:09;2.40;;;1.42;;
64854;SDS011;51321;50.428;8.378;2023-06-14T13:43:49;1.90;;;1.30;;
64854;SDS011;51321;50.428;8.378;2023-06-14T13:46:30;3.42;;;1.30;;
64854;SDS011;51321;50.428;8.378;2023-06-14T13:49:13;4.53;;;1.02;;
64854;SDS011;51321;50.428;8.378;2023-06-14T13:51:53;1.85;;;1.00;;
64854;SDS011;51321;50.428;8.378;2023-06-14T13:54:34;2.67;;;1.50;;
64854;SDS011;51321;50.428;8.378;2023-06-14T13:57:15;4.25;;;1.00;;
64854;SDS011;51321;50.428;8.378;2023-06-14T13:59:56;1.13;;;1.02;;
64854;SDS011;51321;50.428;8.378;2023-06-14T14:02:40;3.67;;;0.95;;
64854;SDS011;51321;50.428;8.378;2023-06-14T14:05:23;5.72;;;1.45;;
64854;SDS011;51321;50.428;8.378;2023-06-14T14:08:07;2.00;;;1.30;;
64854;SDS011;51321;50.428;8.378;2023-06-14T14:10:48;2.85;;;1.38;;
64854;SDS011;51321;50.428;8.378;2023-06-14T14:13:29;3.90;;;2.15;;
64854;SDS011;51321;50.428;8.378;2023-06-14T14:16:09;3.67;;;1.20;;
64854;SDS011;51321;50.428;8.378;2023-06-14T14:18:50;2.53;;;1.40;;
64854;SDS011;51321;50.428;8.378;2023-06-14T14:21:33;3.00;;;1.20;;
64854;SDS011;51321;50.428;8.378;2023-06-14T14:24:13;3.10;;;1.40;;
64854;SDS011;51321;50.428;8.378;2023-06-14T14:26:54;3.08;;;1.40;;
64854;SDS011;51321;50.428;8.378;2023-06-14T14:29:38;2.70;;;1.25;;
64854;SDS011;51321;50.428;8.378;2023-06-14T14:32:19;2.67;;;1.73;;
64854;SDS011;51321;50.428;8.378;2023-06-14T14:34:59;2.47;;;1.30;;
64854;SDS011;51321;50.428;8.378;2023-06-14T14:37:41;2.58;;;1.30;;
64854;SDS011;51321;50.428;8.378;2023-06-14T14:40:22;4.72;;;1.45;;
64854;SDS011;51321;50.428;8.378;2023-06-14T14:43:02;2.53;;;1.58;;
64854;SDS011;51321;50.428;8.378;2023-06-14T14:45:44;3.95;;;1.52;;
64854;SDS011;51321;50.428;8.378;2023-06-14T14:48:24;3.85;;;1.50;;
64854;SDS011;51321;50.428;8.378;2023-06-14T14:51:05;2.22;;;1.23;;
64854;SDS011;51321;50.428;8.378;2023-06-14T14:53:47;2.35;;;1.10;;
64854;SDS011;51321;50.428;8.378;2023-06-14T14:56:28;2.80;;;1.50;;
64854;SDS011;51321;50.428;8.378;2023-06-14T14:59:08;5.95;;;1.20;;
64854;SDS011;51321;50.428;8.378;2023-06-14T15:01:49;3.53;;;1.27;;
64854;SDS011;51321;50.428;8.378;2023-06-14T15:04:29;1.95;;;1.20;;
64854;SDS011;51321;50.428;8.378;2023-06-14T15:07:10;2.17;;;1.20;;
64854;SDS011;51321;50.428;8.378;2023-06-14T15:09:51;4.90;;;1.40;;
64854;SDS011;51321;50.428;8.378;2023-06-14T15:12:32;3.88;;;1.30;;
64854;SDS011;51321;50.428;8.378;2023-06-14T15:15:13;1.70;;;1.30;;
64854;SDS011;51321;50.428;8.378;2023-06-14T15:17:54;1.67;;;1.27;;
64854;SDS011;51321;50.428;8.378;2023-06-14T15:20:34;2.40;;;1.80;;
64854;SDS011;51321;50.428;8.378;2023-06-14T15:23:15;3.20;;;1.42;;
64854;SDS011;51321;50.428;8.378;2023-06-14T15:26:00;4.68;;;1.25;;
64854;SDS011;51321;50.428;8.378;2023-06-14T15:28:40;3.30;;;1.27;;
64854;SDS011;51321;50.428;8.378;2023-06-14T15:31:21;2.80;;;1.35;;
64854;SDS011;51321;50.428;8.378;2023-06-14T15:34:04;2.45;;;1.27;;
64854;SDS011;51321;50.428;8.378;2023-06-14T15:36:46;1.90;;;1.20;;
64854;SDS011;51321;50.428;8.378;2023-06-14T15:39:26;1.92;;;1.35;;
64854;SDS011;51321;50.428;8.378;2023-06-14T15:42:10;2.88;;;1.55;;
64854;SDS011;51321;50.428;8.378;2023-06-14T15:44:51;1.98;;;1.10;;
64854;SDS011;51321;50.428;8.378;2023-06-14T15:47:32;1.90;;;1.40;;
64854;SDS011;51321;50.428;8.378;2023-06-14T15:50:12;4.47;;;1.50;;
64854;SDS011;51321;50.428;8.378;2023-06-14T15:52:53;2.17;;;1.33;;
64854;SDS011;51321;50.428;8.378;2023-06-14T15:55:34;3.50;;;1.42;;
64854;SDS011;51321;50.428;8.378;2023-06-14T15:58:16;2.15;;;1.40;;
64854;SDS011;51321;50.428;8.378;2023-06-14T16:00:57;1.80;;;1.50;;
64854;SDS011;51321;50.428;8.378;2023-06-14T16:03:38;5.72;;;1.40;;
64854;SDS011;51321;50.428;8.378;2023-06-14T16:06:18;3.30;;;1.40;;
64854;SDS011;51321;50.428;8.378;2023-06-14T16:08:59;3.38;;;1.23;;
64854;SDS011;51321;50.428;8.378;2023-06-14T16:11:41;3.97;;;1.25;;
64854;SDS011;51321;50.428;8.378;2023-06-14T16:14:23;2.65;;;1.10;;
64854;SDS011;51321;50.428;8.378;2023-06-14T16:17:05;3.25;;;1.23;;
64854;SDS011;51321;50.428;8.378;2023-06-14T16:19:45;3.07;;;1.23;;
64854;SDS011;51321;50.428;8.378;2023-06-14T16:22:26;2.55;;;1.33;;
64854;SDS011;51321;50.428;8.378;2023-06-14T16:25:07;3.15;;;1.40;;
64854;SDS011;51321;50.428;8.378;2023-06-14T16:27:48;2.72;;;1.10;;
64854;SDS011;51321;50.428;8.378;2023-06-14T16:30:30;3.17;;;1.20;;
64854;SDS011;51321;50.428;8.378;2023-06-14T16:33:11;3.40;;;1.60;;
64854;SDS011;51321;50.428;8.378;2023-06-14T16:35:52;4.03;;;1.55;;
64854;SDS011;51321;50.428;8.378;2023-06-14T16:38:32;3.17;;;1.52;;
64854;SDS011;51321;50.428;8.378;2023-06-14T16:41:13;2.20;;;1.33;;
64854;SDS011;51321;50.428;8.378;2023-06-14T16:43:55;4.15;;;1.50;;